Terminal Aerodrome Forecast
Issued by NWS Mt. Holly, NJ

Current Version | Previous Version | Text Only | Print | Product List | Glossary On
Versions: 1 2 3 4 5 6 7 8 9 10 11 12 13 14 15 16 17 18 19 20 21 22
740
FTUS41 KPHI 121123
TAFRDG
TAF
KRDG 121123Z 1212/1312 24006KT P6SM SCT150
     FM122300 19004KT 4SM -SHSN BKN030
     FM130400 25005KT P6SM SCT030 OVC080=

USA.gov is the U.S. government's official web portal to all federal, state and local government web resources and services.